createdAt,value
2022-08-24T00:00:42.248Z,17.60
2022-08-24T00:03:12.047Z,17.70
2022-08-24T00:05:40.513Z,17.68
2022-08-24T00:08:08.659Z,17.68
2022-08-24T00:10:36.780Z,17.69
2022-08-24T00:13:05.027Z,17.66
2022-08-24T00:15:34.560Z,17.63
2022-08-24T00:18:02.671Z,17.61
2022-08-24T00:20:30.973Z,17.53
2022-08-24T00:22:59.479Z,17.44
2022-08-24T00:25:27.572Z,17.39
2022-08-24T00:27:55.687Z,17.36
2022-08-24T00:30:24.061Z,17.32
2022-08-24T00:32:54.286Z,17.39
2022-08-24T00:35:23.292Z,17.37
2022-08-24T00:37:53.156Z,17.40
2022-08-24T00:40:24.078Z,17.35
2022-08-24T00:42:52.676Z,17.41
2022-08-24T00:45:22.228Z,17.45
2022-08-24T00:47:59.193Z,17.52
2022-08-24T00:50:36.869Z,17.45
2022-08-24T00:53:11.186Z,17.47
2022-08-24T00:55:43.499Z,17.46
2022-08-24T00:58:18.193Z,17.45
2022-08-24T01:00:52.901Z,17.45
2022-08-24T01:03:22.813Z,17.46
2022-08-24T01:05:51.321Z,17.52
2022-08-24T01:08:23.450Z,17.51
2022-08-24T01:11:02.532Z,17.57
2022-08-24T01:13:32.431Z,17.57
2022-08-24T01:16:04.782Z,17.54
2022-08-24T01:18:51.648Z,17.49
2022-08-24T01:21:22.661Z,17.48
2022-08-24T01:23:55.419Z,17.45
2022-08-24T01:26:36.835Z,17.43
2022-08-24T01:29:09.664Z,17.42
2022-08-24T01:31:37.841Z,17.37
2022-08-24T01:34:06.894Z,17.34
2022-08-24T01:36:39.222Z,17.27
2022-08-24T01:39:14.867Z,17.22
2022-08-24T01:41:43.285Z,17.14
2022-08-24T01:44:11.875Z,17.17
2022-08-24T01:46:40.012Z,17.16
2022-08-24T01:49:08.036Z,17.21
2022-08-24T01:51:36.219Z,17.12
2022-08-24T01:54:05.792Z,16.97
2022-08-24T01:56:35.721Z,16.93
2022-08-24T01:59:07.821Z,17.13
2022-08-24T02:01:39.293Z,17.21
2022-08-24T02:04:09.661Z,17.27
2022-08-24T02:06:38.956Z,17.31
2022-08-24T02:09:07.724Z,17.26
2022-08-24T02:11:38.290Z,17.22
2022-08-24T02:14:06.961Z,17.23
2022-08-24T02:16:35.008Z,17.21
2022-08-24T02:19:02.992Z,17.22
2022-08-24T02:21:31.180Z,17.21
2022-08-24T02:23:59.318Z,17.25
2022-08-24T02:26:28.428Z,17.07
2022-08-24T02:29:03.593Z,16.96
2022-08-24T02:31:32.502Z,16.96
2022-08-24T02:34:00.650Z,16.92
2022-08-24T02:36:28.643Z,16.85
2022-08-24T02:38:56.945Z,16.92
2022-08-24T02:41:25.778Z,17.05
2022-08-24T02:43:54.658Z,17.13
2022-08-24T02:46:25.923Z,17.09
2022-08-24T02:48:57.429Z,17.21
2022-08-24T02:51:44.073Z,17.26
2022-08-24T02:54:17.399Z,17.09
2022-08-24T02:56:45.701Z,17.02
2022-08-24T02:59:14.118Z,17.04
2022-08-24T03:01:43.974Z,17.07
2022-08-24T03:04:13.050Z,17.14
2022-08-24T03:06:41.343Z,17.21
2022-08-24T03:09:09.870Z,17.31
2022-08-24T03:11:38.593Z,17.35
2022-08-24T03:14:07.890Z,17.39
2022-08-24T03:16:38.673Z,17.34
2022-08-24T03:19:08.486Z,17.31
2022-08-24T03:21:36.512Z,17.43
2022-08-24T03:24:05.028Z,17.41
2022-08-24T03:26:33.316Z,17.40
2022-08-24T03:29:01.573Z,17.41
2022-08-24T03:31:29.660Z,17.47
2022-08-24T03:33:57.742Z,17.40
2022-08-24T03:36:27.301Z,17.28
2022-08-24T03:38:55.351Z,17.34
2022-08-24T03:41:23.358Z,17.41
2022-08-24T03:43:51.469Z,17.32
2022-08-24T03:46:22.438Z,17.38
2022-08-24T03:48:53.646Z,17.40
2022-08-24T03:51:28.178Z,17.40
2022-08-24T03:53:59.255Z,17.37
2022-08-24T03:56:28.015Z,17.43
2022-08-24T03:58:56.522Z,17.47
2022-08-24T04:01:24.990Z,17.52
2022-08-24T04:03:54.099Z,17.60
2022-08-24T04:06:23.482Z,17.56
2022-08-24T04:08:52.393Z,17.70
2022-08-24T04:11:24.636Z,17.80
2022-08-24T04:13:53.899Z,17.92
2022-08-24T04:16:22.764Z,17.92
2022-08-24T04:18:51.562Z,18.06
2022-08-24T04:21:21.251Z,18.06
2022-08-24T04:23:49.631Z,18.04
2022-08-24T04:26:43.869Z,18.04
2022-08-24T04:29:10.555Z,18.05
2022-08-24T04:31:38.840Z,18.10
2022-08-24T04:34:07.640Z,18.19
2022-08-24T04:36:36.564Z,18.20
2022-08-24T04:39:05.440Z,18.19
2022-08-24T04:41:33.523Z,18.14
2022-08-24T04:44:02.749Z,18.17
2022-08-24T04:46:32.535Z,18.36
2022-08-24T04:49:00.645Z,18.45
2022-08-24T04:51:32.852Z,18.48
2022-08-24T04:54:05.118Z,18.51
2022-08-24T04:56:33.152Z,18.56
2022-08-24T04:59:01.616Z,18.52
2022-08-24T05:01:33.936Z,18.61
2022-08-24T05:04:02.877Z,18.49
2022-08-24T05:06:32.913Z,18.64
2022-08-24T05:09:02.513Z,18.66
2022-08-24T05:11:31.307Z,18.54
2022-08-24T05:14:00.125Z,18.62
2022-08-24T05:16:39.793Z,18.64
2022-08-24T05:19:15.528Z,18.72
2022-08-24T05:21:44.785Z,18.85
2022-08-24T05:24:12.984Z,18.89
2022-08-24T05:26:42.244Z,18.94
2022-08-24T05:29:11.248Z,18.89
2022-08-24T05:31:45.261Z,19.00
2022-08-24T05:34:15.695Z,19.05
2022-08-24T05:36:44.777Z,18.88
2022-08-24T05:39:15.528Z,18.88
2022-08-24T05:41:45.328Z,19.10
2022-08-24T05:44:16.139Z,19.20
2022-08-24T05:46:45.633Z,19.30
2022-08-24T05:49:15.300Z,19.23
2022-08-24T05:51:43.980Z,19.28
2022-08-24T05:54:15.790Z,19.41
2022-08-24T05:56:44.923Z,19.49
2022-08-24T05:59:15.239Z,19.61
2022-08-24T06:01:47.245Z,19.68
2022-08-24T06:04:17.182Z,19.73
2022-08-24T06:06:48.786Z,19.80
2022-08-24T06:09:18.086Z,19.86
2022-08-24T06:11:47.704Z,19.91
2022-08-24T06:14:22.873Z,19.86
2022-08-24T06:16:55.912Z,19.65
2022-08-24T06:19:28.269Z,19.78
2022-08-24T06:21:57.094Z,19.93
2022-08-24T06:24:46.171Z,20.01
2022-08-24T06:27:25.578Z,20.10
2022-08-24T06:29:56.731Z,19.91
2022-08-24T06:32:26.254Z,19.90
2022-08-24T06:34:59.434Z,19.93
2022-08-24T06:37:29.628Z,20.03
2022-08-24T06:39:59.799Z,20.12
2022-08-24T06:42:30.535Z,20.16
2022-08-24T06:44:59.591Z,20.29
2022-08-24T06:47:27.787Z,20.46
2022-08-24T06:49:59.682Z,20.49
2022-08-24T06:52:28.145Z,20.53
2022-08-24T06:54:56.609Z,20.57
2022-08-24T06:57:25.824Z,20.45
2022-08-24T06:59:55.381Z,20.56
2022-08-24T07:02:24.617Z,20.78
2022-08-24T07:04:53.093Z,20.82
2022-08-24T07:07:23.817Z,20.76
2022-08-24T07:09:51.960Z,20.85
2022-08-24T07:12:20.292Z,20.83
2022-08-24T07:14:49.378Z,20.86
2022-08-24T07:17:19.347Z,20.98
2022-08-24T07:19:47.610Z,20.98
2022-08-24T07:22:16.497Z,21.12
2022-08-24T07:24:46.709Z,21.13
2022-08-24T07:27:15.274Z,21.27
2022-08-24T07:29:52.875Z,21.45
2022-08-24T07:32:29.467Z,21.59
2022-08-24T07:34:57.773Z,21.54
2022-08-24T07:37:40.722Z,21.50
2022-08-24T07:40:11.798Z,21.58
2022-08-24T07:42:42.489Z,21.58
2022-08-24T07:45:13.625Z,21.63
2022-08-24T07:47:52.114Z,21.81
2022-08-24T07:50:23.417Z,21.99
2022-08-24T07:52:51.827Z,22.24
2022-08-24T07:55:22.363Z,22.19
2022-08-24T07:57:51.109Z,22.40
2022-08-24T08:00:20.982Z,22.60
2022-08-24T08:02:50.575Z,22.70
2022-08-24T08:05:22.050Z,22.79
2022-08-24T08:07:52.199Z,22.76
2022-08-24T08:10:23.601Z,22.84
2022-08-24T08:12:52.359Z,22.90
2022-08-24T08:15:21.018Z,23.15
2022-08-24T08:17:54.056Z,23.20
2022-08-24T08:20:24.825Z,23.29
2022-08-24T08:23:19.533Z,23.51
2022-08-24T08:25:52.524Z,23.69
2022-08-24T08:28:36.645Z,23.79
2022-08-24T08:31:09.068Z,23.83
2022-08-24T08:33:37.926Z,23.84
2022-08-24T08:36:10.077Z,23.78
2022-08-24T08:38:40.250Z,23.75
2022-08-24T08:41:39.551Z,23.73
2022-08-24T08:44:17.482Z,23.78
2022-08-24T08:47:01.994Z,23.94
2022-08-24T08:50:07.468Z,24.15
2022-08-24T08:53:02.885Z,24.21
2022-08-24T08:55:37.667Z,24.07
2022-08-24T08:58:23.229Z,24.27
2022-08-24T09:01:04.736Z,24.52
2022-08-24T09:04:21.338Z,24.62
2022-08-24T09:07:18.362Z,24.49
2022-08-24T09:10:04.795Z,24.77
2022-08-24T09:12:49.717Z,24.88
2022-08-24T09:15:57.581Z,25.17
2022-08-24T09:18:41.989Z,25.42
2022-08-24T09:21:47.979Z,25.66
2022-08-24T09:24:31.516Z,25.70
2022-08-24T09:27:13.386Z,25.48
2022-08-24T09:30:03.632Z,25.52
2022-08-24T09:33:14.008Z,25.61
2022-08-24T09:39:04.616Z,25.24
2022-08-24T09:45:23.617Z,25.44
2022-08-24T09:48:27.697Z,25.59
2022-08-24T09:51:26.415Z,25.46
2022-08-24T09:54:30.345Z,25.31
2022-08-24T10:00:13.925Z,25.83
2022-08-24T10:02:57.245Z,26.01
2022-08-24T10:05:37.451Z,26.18
2022-08-24T10:08:19.683Z,26.04
2022-08-24T10:10:58.672Z,26.18
2022-08-24T10:16:42.300Z,26.49
2022-08-24T10:19:50.874Z,26.32
2022-08-24T10:22:47.399Z,26.51
2022-08-24T10:25:32.341Z,26.51
2022-08-24T10:28:12.238Z,26.64
2022-08-24T10:31:06.880Z,26.70
2022-08-24T10:33:53.103Z,26.78
2022-08-24T10:37:03.886Z,27.33
2022-08-24T10:40:09.409Z,27.48
2022-08-24T10:43:33.923Z,27.05
2022-08-24T10:46:59.265Z,27.91
2022-08-24T10:49:59.372Z,28.91
2022-08-24T10:53:12.974Z,29.46
2022-08-24T10:59:12.709Z,30.17
2022-08-24T11:04:50.601Z,30.17
2022-08-24T11:10:42.857Z,29.60
2022-08-24T11:16:35.581Z,29.47
2022-08-24T11:19:08.615Z,29.77
2022-08-24T11:21:44.593Z,29.39
2022-08-24T11:24:27.070Z,29.06
2022-08-24T11:27:00.174Z,29.10
2022-08-24T11:29:32.627Z,29.39
2022-08-24T11:32:13.775Z,29.41
2022-08-24T11:34:48.671Z,29.95
2022-08-24T11:37:20.930Z,30.02
2022-08-24T11:39:52.644Z,30.19
2022-08-24T11:42:33.652Z,30.10
2022-08-24T11:45:11.529Z,29.96
2022-08-24T11:47:50.775Z,29.88
2022-08-24T11:50:27.836Z,30.00
2022-08-24T11:53:12.958Z,30.53
2022-08-24T11:55:57.468Z,30.10
2022-08-24T11:58:42.413Z,30.40
2022-08-24T12:01:23.416Z,29.80
2022-08-24T12:04:06.597Z,30.09
2022-08-24T12:06:46.111Z,30.55
2022-08-24T12:09:41.075Z,30.79
2022-08-24T12:12:21.157Z,31.12
2022-08-24T12:15:00.362Z,31.20
2022-08-24T12:17:35.524Z,30.69
2022-08-24T12:20:12.706Z,29.61
2022-08-24T12:22:43.588Z,29.19
2022-08-24T12:25:27.821Z,28.45
2022-08-24T12:27:57.464Z,27.96
2022-08-24T12:30:27.457Z,27.96
2022-08-24T12:33:00.477Z,28.04
2022-08-24T12:35:33.963Z,27.68
2022-08-24T12:38:09.357Z,27.66
2022-08-24T12:40:41.696Z,27.56
2022-08-24T12:43:14.276Z,27.37
2022-08-24T12:45:42.643Z,27.42
2022-08-24T12:48:18.688Z,27.40
2022-08-24T12:51:05.260Z,27.12
2022-08-24T12:54:01.992Z,27.12
2022-08-24T12:56:49.210Z,27.16
2022-08-24T12:59:24.771Z,27.11
2022-08-24T13:02:02.319Z,27.17
2022-08-24T13:04:39.213Z,27.79
2022-08-24T13:07:14.999Z,28.51
2022-08-24T13:09:46.432Z,28.16
2022-08-24T13:12:53.336Z,27.76
2022-08-24T13:15:56.845Z,27.32
2022-08-24T13:19:06.722Z,27.23
2022-08-24T13:21:44.611Z,26.81
2022-08-24T13:24:50.342Z,26.47
2022-08-24T13:28:03.663Z,26.29
2022-08-24T13:31:28.751Z,26.07
2022-08-24T13:34:22.198Z,26.00
2022-08-24T13:37:06.166Z,25.85
2022-08-24T13:39:56.928Z,25.81
2022-08-24T13:42:41.002Z,25.56
2022-08-24T13:45:32.770Z,25.45
2022-08-24T13:48:15.737Z,25.40
2022-08-24T13:51:05.682Z,25.39
2022-08-24T13:53:48.395Z,25.42
2022-08-24T13:56:33.499Z,25.52
2022-08-24T13:59:10.100Z,25.53
2022-08-24T14:01:48.368Z,25.94
2022-08-24T14:04:34.750Z,26.75
2022-08-24T14:07:14.508Z,27.87
2022-08-24T14:09:58.950Z,28.54
2022-08-24T14:12:45.241Z,29.29
2022-08-24T14:15:24.777Z,29.94
2022-08-24T14:18:06.822Z,30.69
2022-08-24T14:21:03.842Z,30.97
2022-08-24T14:23:53.184Z,30.57
2022-08-24T14:26:55.657Z,29.99
2022-08-24T14:29:33.244Z,28.65
2022-08-24T14:32:45.215Z,28.09
2022-08-24T14:35:34.504Z,27.44
2022-08-24T14:38:23.540Z,26.95
2022-08-24T14:41:04.638Z,26.72
2022-08-24T14:43:48.404Z,26.46
2022-08-24T14:46:22.995Z,26.53
2022-08-24T14:49:04.783Z,26.18
2022-08-24T14:51:57.217Z,26.01
2022-08-24T14:54:39.463Z,25.92
2022-08-24T14:57:44.183Z,25.85
2022-08-24T15:00:20.857Z,25.84
2022-08-24T15:03:12.771Z,25.79
2022-08-24T15:05:51.876Z,25.64
2022-08-24T15:08:42.782Z,25.46
2022-08-24T15:11:13.653Z,25.43
2022-08-24T15:13:48.572Z,25.39
2022-08-24T15:16:23.533Z,25.39
2022-08-24T15:19:04.839Z,25.23
2022-08-24T15:21:45.365Z,25.10
2022-08-24T15:27:08.456Z,25.23
2022-08-24T15:29:47.220Z,25.32
2022-08-24T15:32:17.815Z,25.39
2022-08-24T15:34:49.657Z,25.44
2022-08-24T15:37:27.929Z,25.44
2022-08-24T15:39:56.341Z,25.19
2022-08-24T15:42:24.797Z,25.14
2022-08-24T15:44:53.914Z,25.12
2022-08-24T15:47:30.357Z,25.26
2022-08-24T15:50:01.363Z,25.22
2022-08-24T15:52:48.304Z,25.25
2022-08-24T15:55:40.495Z,25.16
2022-08-24T15:58:28.286Z,25.12
2022-08-24T16:01:19.603Z,25.08
2022-08-24T16:03:52.634Z,24.87
2022-08-24T16:06:26.287Z,24.85
2022-08-24T16:09:03.552Z,24.80
2022-08-24T16:11:38.388Z,24.73
2022-08-24T16:14:13.902Z,24.64
2022-08-24T16:16:46.780Z,24.69
2022-08-24T16:19:28.400Z,24.64
2022-08-24T16:22:01.118Z,24.64
2022-08-24T16:24:36.125Z,24.68
2022-08-24T16:27:10.786Z,24.70
2022-08-24T16:29:50.268Z,24.74
2022-08-24T16:32:32.544Z,24.74
2022-08-24T16:35:22.270Z,24.83
2022-08-24T16:37:50.714Z,24.82
2022-08-24T16:40:19.353Z,24.84
2022-08-24T16:42:47.678Z,24.70
2022-08-24T16:45:19.211Z,24.53
2022-08-24T16:47:48.104Z,24.47
2022-08-24T16:50:20.644Z,24.23
2022-08-24T16:52:50.505Z,24.22
2022-08-24T16:55:18.976Z,23.91
2022-08-24T16:57:47.653Z,23.93
2022-08-24T17:00:19.285Z,23.79
2022-08-24T17:02:48.529Z,23.83
2022-08-24T17:05:21.120Z,23.87
2022-08-24T17:07:50.303Z,23.83
2022-08-24T17:10:22.117Z,23.66
2022-08-24T17:12:50.501Z,23.53
2022-08-24T17:15:18.770Z,23.49
2022-08-24T17:17:58.494Z,23.53
2022-08-24T17:20:29.476Z,23.39
2022-08-24T17:22:59.658Z,23.46
2022-08-24T17:25:29.476Z,23.44
2022-08-24T17:27:59.337Z,23.32
2022-08-24T17:30:31.005Z,23.32
2022-08-24T17:33:00.659Z,23.19
2022-08-24T17:35:31.110Z,23.15
2022-08-24T17:38:00.032Z,23.22
2022-08-24T17:40:30.066Z,23.17
2022-08-24T17:42:58.561Z,23.21
2022-08-24T17:45:27.275Z,23.30
2022-08-24T17:48:13.556Z,23.36
2022-08-24T17:50:43.936Z,23.43
2022-08-24T17:53:12.188Z,23.45
2022-08-24T17:55:40.637Z,23.44
2022-08-24T17:58:08.768Z,23.32
2022-08-24T18:00:37.188Z,23.33
2022-08-24T18:03:05.701Z,23.34
2022-08-24T18:05:35.304Z,23.31
2022-08-24T18:08:06.430Z,23.34
2022-08-24T18:10:34.710Z,23.37
2022-08-24T18:13:04.219Z,23.31
2022-08-24T18:15:36.350Z,23.31
2022-08-24T18:18:08.428Z,23.24
2022-08-24T18:20:40.130Z,23.24
2022-08-24T18:23:12.602Z,23.18
2022-08-24T18:25:45.514Z,23.03
2022-08-24T18:28:14.999Z,23.10
2022-08-24T18:30:44.179Z,22.97
2022-08-24T18:33:13.729Z,22.89
2022-08-24T18:35:42.067Z,22.87
2022-08-24T18:38:11.683Z,22.85
2022-08-24T18:40:41.349Z,22.82
2022-08-24T18:43:23.864Z,22.76
2022-08-24T18:45:53.876Z,22.73
2022-08-24T18:48:22.155Z,22.71
2022-08-24T18:50:51.091Z,22.75
2022-08-24T18:53:37.007Z,22.63
2022-08-24T18:56:10.608Z,22.61
2022-08-24T18:58:41.326Z,22.58
2022-08-24T19:01:12.184Z,22.45
2022-08-24T19:03:40.635Z,22.52
2022-08-24T19:06:09.370Z,22.44
2022-08-24T19:08:39.550Z,22.45
2022-08-24T19:11:08.568Z,22.34
2022-08-24T19:13:38.798Z,22.35
2022-08-24T19:16:07.180Z,22.36
2022-08-24T19:18:35.436Z,22.40
2022-08-24T19:21:03.780Z,22.36
2022-08-24T19:23:35.088Z,22.12
2022-08-24T19:26:05.079Z,22.10
2022-08-24T19:28:33.812Z,22.16
2022-08-24T19:31:08.788Z,22.15
2022-08-24T19:33:40.927Z,22.11
2022-08-24T19:36:10.184Z,22.09
2022-08-24T19:38:38.692Z,22.19
2022-08-24T19:41:12.834Z,22.21
2022-08-24T19:43:56.947Z,22.28
2022-08-24T19:46:25.382Z,22.13
2022-08-24T19:48:53.784Z,22.20
2022-08-24T19:51:22.088Z,22.15
2022-08-24T19:53:51.446Z,22.12
2022-08-24T19:56:21.452Z,22.01
2022-08-24T19:58:54.932Z,21.79
2022-08-24T20:01:24.891Z,21.70
2022-08-24T20:03:53.124Z,21.71
2022-08-24T20:06:23.935Z,21.72
2022-08-24T20:08:53.158Z,21.67
2022-08-24T20:11:25.399Z,21.53
2022-08-24T20:13:54.979Z,21.53
2022-08-24T20:16:26.064Z,21.27
2022-08-24T20:18:54.303Z,21.25
2022-08-24T20:21:27.075Z,21.17
2022-08-24T20:23:58.448Z,21.02
2022-08-24T20:26:29.680Z,20.95
2022-08-24T20:28:59.070Z,20.89
2022-08-24T20:31:29.624Z,20.89
2022-08-24T20:33:58.801Z,20.92
2022-08-24T20:36:29.492Z,20.83
2022-08-24T20:38:59.393Z,20.83
2022-08-24T20:41:29.601Z,20.80
2022-08-24T20:43:58.442Z,20.73
2022-08-24T20:46:28.147Z,20.82
2022-08-24T20:48:57.983Z,20.90
2022-08-24T20:51:27.005Z,20.90
2022-08-24T20:53:55.394Z,20.82
2022-08-24T20:56:31.158Z,20.76
2022-08-24T20:59:02.634Z,20.72
2022-08-24T21:01:31.089Z,20.73
2022-08-24T21:04:04.195Z,20.69
2022-08-24T21:06:34.279Z,20.67
2022-08-24T21:09:03.288Z,20.59
2022-08-24T21:11:32.969Z,20.71
2022-08-24T21:14:06.129Z,20.58
2022-08-24T21:16:36.390Z,20.49
2022-08-24T21:19:06.272Z,20.57
2022-08-24T21:21:34.952Z,20.44
2022-08-24T21:24:04.573Z,20.54
2022-08-24T21:26:33.819Z,20.45
2022-08-24T21:29:05.566Z,20.36
2022-08-24T21:31:34.018Z,20.31
2022-08-24T21:34:19.733Z,20.33
2022-08-24T21:36:49.401Z,20.37
2022-08-24T21:39:22.131Z,20.33
2022-08-24T21:41:50.277Z,20.40
2022-08-24T21:44:19.790Z,20.50
2022-08-24T21:46:51.919Z,20.70
2022-08-24T21:49:21.318Z,20.68
2022-08-24T21:51:50.073Z,20.73
2022-08-24T21:54:20.845Z,20.70
2022-08-24T21:56:49.594Z,20.71
2022-08-24T21:59:19.056Z,20.69
2022-08-24T22:01:47.515Z,20.81
2022-08-24T22:04:15.690Z,20.88
2022-08-24T22:06:43.798Z,20.72
2022-08-24T22:09:12.066Z,20.78
2022-08-24T22:11:40.262Z,20.73
2022-08-24T22:14:08.451Z,20.74
2022-08-24T22:16:38.028Z,20.90
2022-08-24T22:19:06.288Z,20.81
2022-08-24T22:21:36.321Z,20.84
2022-08-24T22:24:05.571Z,20.77
2022-08-24T22:26:34.338Z,20.76
2022-08-24T22:29:02.853Z,20.76
2022-08-24T22:31:33.668Z,20.67
2022-08-24T22:34:06.037Z,20.65
2022-08-24T22:36:34.330Z,20.69
2022-08-24T22:39:02.948Z,20.73
2022-08-24T22:41:32.004Z,20.84
2022-08-24T22:44:20.575Z,20.86
2022-08-24T22:46:50.793Z,20.89
2022-08-24T22:49:21.477Z,20.80
2022-08-24T22:51:50.110Z,20.70
2022-08-24T22:54:18.829Z,20.56
2022-08-24T22:56:50.225Z,20.58
2022-08-24T22:59:21.291Z,20.35
2022-08-24T23:01:51.625Z,20.31
2022-08-24T23:04:25.120Z,20.33
2022-08-24T23:06:54.981Z,20.35
2022-08-24T23:09:23.333Z,20.31
2022-08-24T23:11:52.345Z,20.25
2022-08-24T23:14:21.683Z,20.18
2022-08-24T23:16:50.629Z,20.22
2022-08-24T23:19:39.945Z,20.34
2022-08-24T23:22:09.695Z,20.36
2022-08-24T23:24:38.689Z,20.36
2022-08-24T23:27:07.870Z,20.50
2022-08-24T23:29:36.345Z,20.62
2022-08-24T23:32:05.128Z,20.60
2022-08-24T23:34:35.118Z,20.71
2022-08-24T23:37:03.235Z,20.63
2022-08-24T23:39:31.609Z,20.67
2022-08-24T23:41:59.700Z,20.63
2022-08-24T23:44:30.885Z,20.63
2022-08-24T23:46:59.833Z,20.56
2022-08-24T23:49:30.004Z,20.54
2022-08-24T23:52:00.456Z,20.46
2022-08-24T23:54:29.278Z,20.21
2022-08-24T23:56:57.489Z,20.12
2022-08-24T23:59:29.443Z,20.02
